Time;durP1;ratioP1;P1;durP2;ratioP2;P2;SDS_P1;SDS_P2;PMS_P1;PMS_P2;Temp;Humidity;BMP_temperature;BMP_pressure;BME280_temperature;BME280_humidity;BME280_pressure;Samples;Min_cycle;Max_cycle;Signal;HPM_P1;HPM_P2
2022/11/18 00:01:03;;;;;;;0.77;0.77;;;1.20;99.90;;;;;;5060190;28;20693;-81
2022/11/18 00:03:29;;;;;;;0.60;0.60;;;1.20;99.90;;;;;;5060330;28;20231;-81
2022/11/18 00:05:58;;;;;;;0.70;0.70;;;1.20;99.90;;;;;;5060555;28;20193;-80
2022/11/18 00:08:25;;;;;;;0.55;0.55;;;1.20;99.90;;;;;;5059899;28;20672;-81
2022/11/18 00:10:51;;;;;;;0.65;0.65;;;1.20;99.90;;;;;;5055441;28;20575;-81
2022/11/18 00:16:08;;;;;;;0.65;0.65;;;1.10;99.90;;;;;;5057567;28;20236;-80
2022/11/18 00:18:34;;;;;;;0.60;0.60;;;1.10;99.90;;;;;;5058027;28;20200;-81
2022/11/18 00:21:01;;;;;;;0.60;0.60;;;1.10;99.90;;;;;;5039896;28;20205;-80
2022/11/18 00:23:27;;;;;;;0.60;0.60;;;1.10;99.90;;;;;;5039570;28;20287;-81
2022/11/18 00:25:53;;;;;;;0.50;0.50;;;1.10;99.90;;;;;;5040526;28;20233;-80
2022/11/18 00:28:19;;;;;;;0.60;0.60;;;1.10;99.90;;;;;;5040321;28;20217;-82
2022/11/18 00:30:45;;;;;;;0.68;0.68;;;1.10;99.90;;;;;;5039150;28;20614;-81
2022/11/18 00:33:11;;;;;;;0.63;0.63;;;1.10;99.90;;;;;;5049908;28;20231;-81
2022/11/18 00:35:37;;;;;;;0.60;0.60;;;1.10;99.90;;;;;;5059692;28;20681;-81
2022/11/18 00:38:02;;;;;;;0.70;0.70;;;1.10;99.90;;;;;;5059003;28;20295;-81
2022/11/18 00:40:30;;;;;;;0.63;0.63;;;1.00;99.90;;;;;;5077481;28;20284;-80
2022/11/18 00:42:56;;;;;;;0.60;0.60;;;1.10;99.90;;;;;;5076230;28;20296;-81
2022/11/18 00:45:22;;;;;;;0.60;0.60;;;1.10;99.90;;;;;;5056230;28;20301;-80
2022/11/18 00:47:48;;;;;;;0.70;0.70;;;1.10;99.90;;;;;;5039783;28;20664;-81
2022/11/18 00:50:14;;;;;;;0.60;0.60;;;1.20;99.90;;;;;;5057833;28;20268;-80
2022/11/18 00:52:40;;;;;;;0.60;0.60;;;1.20;99.90;;;;;;5058618;28;20205;-80
2022/11/18 00:55:06;;;;;;;0.70;0.70;;;1.10;99.90;;;;;;5059661;28;20212;-81
2022/11/18 00:57:37;;;;;;;0.70;0.70;;;1.10;99.90;;;;;;5058250;28;20283;-80
2022/11/18 01:00:03;;;;;;;0.68;0.68;;;1.20;99.90;;;;;;5058625;28;20288;-79
2022/11/18 01:02:29;;;;;;;0.60;0.60;;;1.20;99.90;;;;;;5057997;28;20196;-80
2022/11/18 01:04:55;;;;;;;0.63;0.63;;;1.20;99.90;;;;;;5058641;28;20745;-80
2022/11/18 01:07:20;;;;;;;0.73;0.73;;;1.20;99.90;;;;;;5057639;28;20242;-80
2022/11/18 01:09:46;;;;;;;0.60;0.60;;;1.20;99.90;;;;;;5059092;28;20189;-81
2022/11/18 01:14:57;;;;;;;0.60;0.60;;;1.20;99.90;;;;;;5077126;28;20199;-80
2022/11/18 01:17:23;;;;;;;0.60;0.60;;;1.20;99.90;;;;;;5058711;28;20473;-80
2022/11/18 01:19:57;;;;;;;0.70;0.70;;;1.20;99.90;;;;;;5057656;28;20252;-81
2022/11/18 01:22:22;;;;;;;0.60;0.60;;;1.20;99.90;;;;;;5069755;28;20772;-80
2022/11/18 01:24:48;;;;;;;0.60;0.60;;;1.10;99.90;;;;;;5079193;28;20193;-80
2022/11/18 01:27:14;;;;;;;0.50;0.50;;;1.10;99.90;;;;;;5078891;28;20571;-80
2022/11/18 01:29:39;;;;;;;0.60;0.60;;;1.00;99.90;;;;;;5084202;28;20203;-81
2022/11/18 01:32:05;;;;;;;0.60;0.60;;;0.90;99.90;;;;;;5058807;28;20250;-81
2022/11/18 01:34:32;;;;;;;0.70;0.70;;;0.90;99.90;;;;;;5059178;28;20197;-80
2022/11/18 01:36:58;;;;;;;0.68;0.68;;;0.80;99.90;;;;;;5058246;28;20192;-79
2022/11/18 01:39:25;;;;;;;0.52;0.52;;;0.80;99.90;;;;;;5059506;28;20691;-80
2022/11/18 01:41:56;;;;;;;0.68;0.68;;;0.70;99.90;;;;;;5077806;28;20224;-80
2022/11/18 01:44:56;;;;;;;0.70;0.70;;;0.60;99.90;;;;;;5067485;28;20189;-87
2022/11/18 01:47:27;;;;;;;0.63;0.63;;;0.60;99.90;;;;;;5066156;28;20197;-87
2022/11/18 01:49:53;;;;;;;0.63;0.63;;;0.50;99.90;;;;;;5066088;28;20284;-89
2022/11/18 01:52:20;;;;;;;0.70;0.70;;;0.50;99.90;;;;;;5066985;28;20672;-87
2022/11/18 01:54:51;;;;;;;0.60;0.60;;;0.50;99.90;;;;;;5066242;28;20189;-88
2022/11/18 01:57:21;;;;;;;0.60;0.60;;;0.50;99.90;;;;;;5050068;28;20197;-89
2022/11/18 01:59:52;;;;;;;0.70;0.70;;;0.50;99.90;;;;;;5065708;28;20189;-88
2022/11/18 02:02:18;;;;;;;0.60;0.60;;;0.50;99.90;;;;;;5065711;28;20602;-89
2022/11/18 02:04:47;;;;;;;0.63;0.63;;;0.50;99.90;;;;;;5081607;28;20240;-89
2022/11/18 02:07:14;;;;;;;0.50;0.50;;;0.60;99.90;;;;;;5084574;28;20249;-89
2022/11/18 02:09:41;;;;;;;0.68;0.68;;;0.60;99.90;;;;;;5086188;28;20666;-89
2022/11/18 02:12:07;;;;;;;0.60;0.60;;;0.60;99.90;;;;;;5086041;28;20196;-89
2022/11/18 02:14:42;;;;;;;0.50;0.50;;;0.60;99.90;;;;;;5104533;28;20194;-89
2022/11/18 02:17:39;;;;;;;0.50;0.50;;;0.70;99.90;;;;;;5086492;28;20192;-88
2022/11/18 02:20:17;;;;;;;0.70;0.70;;;0.60;99.90;;;;;;5086433;28;20260;-89
2022/11/18 02:23:13;;;;;;;0.82;0.82;;;0.60;99.90;;;;;;5071104;28;20243;-89
2022/11/18 02:25:42;;;;;;;0.60;0.60;;;0.50;99.90;;;;;;5065429;28;20220;-89
2022/11/18 02:28:45;;;;;;;0.60;0.60;;;0.50;99.90;;;;;;5065725;28;20204;-90
2022/11/18 02:31:34;;;;;;;0.60;0.60;;;0.50;99.90;;;;;;5069673;28;20752;-89
2022/11/18 02:34:11;;;;;;;0.60;0.60;;;0.50;99.90;;;;;;5069457;28;20209;-87
2022/11/18 02:37:12;;;;;;;0.70;0.70;;;0.50;99.90;;;;;;5086154;28;20295;-87
2022/11/18 02:39:47;;;;;;;0.70;0.70;;;0.50;99.90;;;;;;5041823;28;20247;-87
2022/11/18 02:42:15;;;;;;;0.60;0.60;;;0.40;99.90;;;;;;5086255;28;20240;-88
2022/11/18 02:44:49;;;;;;;0.68;0.68;;;0.40;99.90;;;;;;5080191;28;20252;-89
2022/11/18 02:47:17;;;;;;;0.50;0.50;;;0.30;99.90;;;;;;5050449;28;20227;-90
2022/11/18 02:49:48;;;;;;;0.60;0.60;;;0.30;99.90;;;;;;5050469;28;20196;-88
2022/11/18 02:52:15;;;;;;;0.50;0.50;;;0.30;99.90;;;;;;5050074;28;20194;-90
2022/11/18 02:54:43;;;;;;;0.70;0.70;;;0.40;99.90;;;;;;5049185;28;20293;-89
2022/11/18 02:57:10;;;;;;;0.60;0.60;;;0.40;99.90;;;;;;5049433;28;20194;-89
2022/11/18 02:59:35;;;;;;;0.60;0.60;;;0.40;99.90;;;;;;5066586;28;20543;-89
2022/11/18 03:02:02;;;;;;;0.60;0.60;;;0.50;99.90;;;;;;5060949;28;20219;-89
2022/11/18 03:04:29;;;;;;;0.55;0.55;;;0.50;99.90;;;;;;5069156;28;20622;-89
2022/11/18 03:07:10;;;;;;;0.70;0.70;;;0.50;99.90;;;;;;5069108;28;20189;-88
2022/11/18 03:09:39;;;;;;;0.60;0.60;;;0.50;99.90;;;;;;5068660;28;20192;-89
2022/11/18 03:12:18;;;;;;;0.80;0.80;;;0.40;99.90;;;;;;5069092;28;20197;-89
2022/11/18 03:14:57;;;;;;;0.73;0.73;;;0.40;99.90;;;;;;5068841;28;20318;-88
2022/11/18 03:17:35;;;;;;;0.50;0.50;;;0.40;99.90;;;;;;5068316;28;20211;-89
2022/11/18 03:20:12;;;;;;;0.50;0.50;;;0.30;99.90;;;;;;5069068;28;20196;-88
2022/11/18 03:22:49;;;;;;;0.60;0.60;;;0.30;99.90;;;;;;5067937;28;20228;-87
2022/11/18 03:25:36;;;;;;;0.70;0.70;;;0.30;99.90;;;;;;5068572;28;20196;-89
2022/11/18 03:28:19;;;;;;;0.57;0.57;;;0.30;99.90;;;;;;5068478;28;20192;-89
2022/11/18 03:30:54;;;;;;;0.70;0.70;;;0.30;99.90;;;;;;5068798;28;20201;-88
2022/11/18 03:33:30;;;;;;;0.50;0.50;;;0.30;99.90;;;;;;5068162;28;20193;-87
2022/11/18 03:35:59;;;;;;;0.63;0.63;;;0.30;99.90;;;;;;5068320;28;20573;-86
2022/11/18 03:38:30;;;;;;;0.63;0.63;;;0.30;99.90;;;;;;5067381;28;20288;-88
2022/11/18 03:41:03;;;;;;;0.50;0.50;;;0.30;99.90;;;;;;5060868;28;20279;-89
2022/11/18 03:43:33;;;;;;;0.60;0.60;;;0.20;99.90;;;;;;5065716;28;20193;-89
2022/11/18 03:46:17;;;;;;;0.70;0.70;;;0.30;99.90;;;;;;5061997;28;20266;-88
2022/11/18 03:48:57;;;;;;;0.52;0.52;;;0.30;99.90;;;;;;5065778;28;20201;-88
2022/11/18 03:51:29;;;;;;;0.60;0.60;;;0.30;99.90;;;;;;5047706;28;20232;-88
2022/11/18 03:54:02;;;;;;;1.17;0.82;;;0.30;99.90;;;;;;5048288;28;20194;-89
2022/11/18 03:56:37;;;;;;;0.70;0.70;;;0.30;99.90;;;;;;5056608;28;20193;-89
2022/11/18 03:59:26;;;;;;;0.77;0.77;;;0.30;99.90;;;;;;5067381;28;20200;-87
2022/11/18 04:01:56;;;;;;;0.50;0.50;;;0.40;99.90;;;;;;5058554;28;20205;-88
2022/11/18 04:04:22;;;;;;;0.45;0.45;;;0.40;99.90;;;;;;5067345;28;20219;-88
2022/11/18 04:06:55;;;;;;;0.73;0.73;;;0.50;99.90;;;;;;5067736;28;20341;-88
2022/11/18 04:09:34;;;;;;;0.65;0.65;;;0.40;99.90;;;;;;5067544;28;20200;-86
2022/11/18 04:12:07;;;;;;;0.70;0.70;;;0.40;99.90;;;;;;5067322;28;20204;-87
2022/11/18 04:14:38;;;;;;;0.60;0.60;;;0.40;99.90;;;;;;5067878;28;20197;-88
2022/11/18 04:17:13;;;;;;;0.70;0.70;;;0.30;99.90;;;;;;5066812;28;20221;-88
2022/11/18 04:19:39;;;;;;;0.70;0.70;;;0.30;99.90;;;;;;5067182;28;20204;-86
2022/11/18 04:22:08;;;;;;;0.57;0.57;;;0.30;99.90;;;;;;5066875;28;20228;-88
2022/11/18 04:24:34;;;;;;;0.50;0.50;;;0.30;99.90;;;;;;5067149;28;20197;-88
2022/11/18 04:27:01;;;;;;;2.45;1.02;;;0.30;99.90;;;;;;5067294;28;20200;-89
2022/11/18 04:29:30;;;;;;;0.50;0.50;;;0.30;99.90;;;;;;5066913;28;20568;-88
2022/11/18 04:31:59;;;;;;;0.70;0.70;;;0.40;99.90;;;;;;5067633;28;20205;-89
2022/11/18 04:34:30;;;;;;;0.70;0.70;;;0.40;99.90;;;;;;5066749;28;20223;-88
2022/11/18 04:36:57;;;;;;;0.60;0.60;;;0.40;99.90;;;;;;5077510;28;20202;-88
2022/11/18 04:39:25;;;;;;;0.60;0.60;;;0.40;99.90;;;;;;5047498;28;20207;-85
2022/11/18 04:41:57;;;;;;;0.70;0.70;;;0.40;99.90;;;;;;5047964;28;20224;-88
2022/11/18 04:44:30;;;;;;;0.70;0.70;;;0.50;99.90;;;;;;5065109;28;20190;-86
2022/11/18 04:46:57;;;;;;;0.60;0.60;;;0.50;99.90;;;;;;5047038;28;20204;-87
2022/11/18 04:49:24;;;;;;;0.60;0.60;;;0.60;99.90;;;;;;5047495;28;20205;-86
2022/11/18 04:51:51;;;;;;;0.60;0.60;;;0.70;99.90;;;;;;5050066;28;20261;-89
2022/11/18 04:54:17;;;;;;;0.70;0.70;;;0.70;99.90;;;;;;5067694;28;20240;-88
2022/11/18 04:56:44;;;;;;;0.60;0.60;;;0.80;99.90;;;;;;5067198;28;20217;-88
2022/11/18 04:59:11;;;;;;;0.70;0.70;;;0.90;99.90;;;;;;5067305;28;20212;-85
2022/11/18 05:01:37;;;;;;;0.73;0.73;;;0.90;99.90;;;;;;5066834;28;20208;-86
2022/11/18 05:04:04;;;;;;;0.70;0.70;;;0.90;99.90;;;;;;5050762;28;20197;-88
2022/11/18 05:06:32;;;;;;;0.60;0.60;;;0.90;99.90;;;;;;5068427;28;20200;-88
2022/11/18 05:08:58;;;;;;;0.70;0.70;;;0.90;99.90;;;;;;5068987;28;20197;-88
2022/11/18 05:14:10;;;;;;;0.60;0.60;;;1.00;99.90;;;;;;5072498;28;20212;-90
2022/11/18 05:16:35;;;;;;;0.60;0.60;;;1.00;99.90;;;;;;5069998;28;20204;-89
2022/11/18 05:19:03;;;;;;;0.60;0.60;;;1.00;99.90;;;;;;5071260;28;20581;-89
2022/11/18 05:21:32;;;;;;;0.60;0.60;;;1.00;99.90;;;;;;5078928;28;20239;-90
2022/11/18 05:23:59;;;;;;;0.68;0.68;;;1.10;99.90;;;;;;5078677;28;20208;-86
2022/11/18 05:26:26;;;;;;;0.70;0.70;;;1.10;99.90;;;;;;5079360;28;20254;-88
2022/11/18 05:28:52;;;;;;;0.63;0.63;;;1.10;99.90;;;;;;5079158;28;20200;-87
2022/11/18 05:31:18;;;;;;;0.50;0.50;;;1.10;99.90;;;;;;5079006;28;20284;-87
2022/11/18 05:33:45;;;;;;;0.70;0.70;;;1.10;99.90;;;;;;5068683;28;20227;-87
2022/11/18 05:36:16;;;;;;;0.60;0.60;;;1.00;99.90;;;;;;5057399;28;20273;-87
2022/11/18 05:38:42;;;;;;;0.70;0.70;;;1.00;99.90;;;;;;5075273;28;20194;-88
2022/11/18 05:43:09;;;;;;;0.60;0.60;;;1.00;99.90;;;;;;5076216;28;20269;-88
2022/11/18 05:44:01;;;;;;;0.65;0.65;;;1.10;99.90;;;;;;5075918;28;20192;-88
2022/11/18 05:46:28;;;;;;;0.68;0.68;;;1.00;99.90;;;;;;5058337;28;20219;-87
2022/11/18 05:48:56;;;;;;;0.70;0.70;;;1.10;99.90;;;;;;5083906;28;20189;-87
2022/11/18 05:51:22;;;;;;;0.60;0.60;;;1.10;99.90;;;;;;5078219;28;20185;-87
2022/11/18 05:53:50;;;;;;;0.55;0.55;;;1.10;99.90;;;;;;5079021;28;20189;-87
2022/11/18 05:56:35;;;;;;;0.60;0.60;;;1.10;99.90;;;;;;5096705;28;20224;-85
2022/11/18 05:59:07;;;;;;;0.60;0.60;;;1.10;99.90;;;;;;5079831;28;20230;-87
2022/11/18 06:01:39;;;;;;;0.60;0.60;;;1.10;99.90;;;;;;5078276;28;20200;-87
2022/11/18 06:04:24;;;;;;;0.68;0.68;;;1.10;99.90;;;;;;5077932;28;20193;-86
2022/11/18 06:06:56;;;;;;;0.60;0.60;;;1.10;99.90;;;;;;5077404;28;20218;-86
2022/11/18 06:09:33;;;;;;;0.43;0.43;;;1.20;99.90;;;;;;5081428;28;20547;-84
2022/11/18 06:12:03;;;;;;;0.60;0.60;;;1.10;99.90;;;;;;5062043;28;20184;-85
2022/11/18 06:14:44;;;;;;;0.70;0.70;;;1.10;99.90;;;;;;5078804;28;20232;-85
2022/11/18 06:17:22;;;;;;;0.60;0.60;;;1.10;99.90;;;;;;5062579;28;20221;-87
2022/11/18 06:19:48;;;;;;;0.70;0.70;;;1.20;99.90;;;;;;5060675;28;20197;-86
2022/11/18 06:22:14;;;;;;;0.50;0.50;;;1.20;99.90;;;;;;5077973;28;20236;-86
2022/11/18 06:24:41;;;;;;;0.60;0.60;;;1.20;99.90;;;;;;5061312;28;20194;-86
2022/11/18 06:27:08;;;;;;;0.60;0.60;;;1.30;99.90;;;;;;5061201;28;20202;-86
2022/11/18 06:29:34;;;;;;;0.68;0.68;;;1.30;99.90;;;;;;5045581;28;20227;-87
2022/11/18 06:32:00;;;;;;;0.70;0.70;;;1.20;99.90;;;;;;5072113;28;20217;-86
2022/11/18 06:34:28;;;;;;;0.60;0.60;;;1.30;99.90;;;;;;5074065;28;20647;-87
2022/11/18 06:36:59;;;;;;;0.60;0.60;;;1.30;99.90;;;;;;5074459;28;20208;-87
2022/11/18 06:39:28;;;;;;;0.63;0.63;;;1.30;99.90;;;;;;5073872;28;20211;-86
2022/11/18 06:41:54;;;;;;;0.60;0.60;;;1.30;99.90;;;;;;5075202;28;20216;-86
2022/11/18 06:44:23;;;;;;;0.60;0.60;;;1.30;99.90;;;;;;5091920;28;20199;-86
2022/11/18 06:46:54;;;;;;;0.55;0.55;;;1.30;99.90;;;;;;5073348;28;20197;-87
2022/11/18 06:49:21;;;;;;;0.60;0.60;;;1.30;99.90;;;;;;5072495;28;20601;-83
2022/11/18 06:52:11;;;;;;;0.55;0.55;;;1.30;99.90;;;;;;5086567;28;20541;-85
2022/11/18 06:54:48;;;;;;;0.68;0.68;;;1.30;99.90;;;;;;5075424;28;20288;-83
2022/11/18 06:57:57;;;;;;;0.60;0.60;;;1.30;99.90;;;;;;5081847;28;20223;-89
2022/11/18 07:03:59;;;;;;;0.60;0.60;;;1.30;99.90;;;;;;4990230;28;20283;-81
2022/11/18 07:06:30;;;;;;;2.67;2.47;;;1.30;99.90;;;;;;4994239;28;20212;-81
2022/11/18 07:08:56;;;;;;;0.50;0.50;;;1.30;99.90;;;;;;4995034;28;20204;-82
2022/11/18 07:11:31;;;;;;;0.60;0.60;;;1.30;99.90;;;;;;4998593;28;20242;-82
2022/11/18 07:14:15;;;;;;;0.70;0.70;;;1.30;99.90;;;;;;4984778;28;20271;-81
2022/11/18 07:16:48;;;;;;;0.60;0.60;;;1.30;99.90;;;;;;4997614;28;20557;-82
2022/11/18 07:19:14;;;;;;;0.47;0.47;;;1.30;99.90;;;;;;5000246;28;20697;-83
2022/11/18 07:21:40;;;;;;;0.70;0.70;;;1.30;99.90;;;;;;4981306;28;20265;-81
2022/11/18 07:24:07;;;;;;;0.70;0.70;;;1.30;99.90;;;;;;5029166;28;20207;-81
2022/11/18 07:26:34;;;;;;;0.60;0.60;;;1.30;99.90;;;;;;5017645;28;20219;-81
2022/11/18 07:29:00;;;;;;;0.60;0.60;;;1.30;99.90;;;;;;5017496;28;20588;-81
2022/11/18 07:31:29;;;;;;;0.60;0.60;;;1.30;99.90;;;;;;5003328;28;20600;-82
2022/11/18 07:34:00;;;;;;;0.60;0.60;;;1.30;99.90;;;;;;5001173;28;20221;-82
2022/11/18 07:36:29;;;;;;;0.73;0.73;;;1.40;99.90;;;;;;5008834;28;20254;-82
2022/11/18 07:39:01;;;;;;;0.70;0.70;;;1.30;99.90;;;;;;5038820;28;20202;-81
2022/11/18 07:41:29;;;;;;;0.60;0.60;;;1.30;99.90;;;;;;5067467;28;20249;-82
2022/11/18 07:44:05;;;;;;;0.68;0.68;;;1.40;99.90;;;;;;5079883;28;20196;-81
2022/11/18 07:46:36;;;;;;;0.60;0.60;;;1.40;99.90;;;;;;5076793;28;20202;-80
2022/11/18 07:49:04;;;;;;;0.85;0.85;;;1.40;99.90;;;;;;5060344;28;20596;-81
2022/11/18 07:51:35;;;;;;;0.68;0.68;;;1.40;99.90;;;;;;5060876;28;20229;-81
2022/11/18 07:54:11;;;;;;;0.50;0.50;;;1.40;99.90;;;;;;5061221;28;20583;-82
2022/11/18 07:56:40;;;;;;;0.65;0.65;;;1.30;99.90;;;;;;5061503;28;20231;-82
2022/11/18 07:59:13;;;;;;;0.70;0.70;;;1.30;99.90;;;;;;5061390;28;20708;-81
2022/11/18 08:01:38;;;;;;;0.70;0.70;;;1.30;99.90;;;;;;5061111;28;20242;-82
2022/11/18 08:04:11;;;;;;;0.60;0.60;;;1.30;99.90;;;;;;5078290;28;20283;-80
2022/11/18 08:06:37;;;;;;;0.60;0.60;;;1.40;99.90;;;;;;5080387;28;20268;-81
2022/11/18 08:09:05;;;;;;;0.50;0.50;;;1.40;99.90;;;;;;5079717;28;20721;-80
2022/11/18 08:11:33;;;;;;;0.60;0.60;;;1.40;99.90;;;;;;5098493;28;20207;-80
2022/11/18 08:13:59;;;;;;;0.50;0.50;;;1.40;99.90;;;;;;5080879;28;20196;-80
2022/11/18 08:16:28;;;;;;;0.60;0.60;;;1.40;99.90;;;;;;5080978;28;20204;-80
2022/11/18 08:18:58;;;;;;;0.60;0.60;;;1.40;99.90;;;;;;5080479;28;20595;-79
2022/11/18 08:21:26;;;;;;;0.70;0.70;;;1.40;99.90;;;;;;5078230;28;20299;-80
2022/11/18 08:23:54;;;;;;;0.70;0.70;;;1.40;99.90;;;;;;5041520;28;20221;-83
2022/11/18 08:26:20;;;;;;;0.52;0.52;;;1.40;99.90;;;;;;5066718;28;20261;-81
2022/11/18 08:28:47;;;;;;;0.60;0.60;;;1.40;99.90;;;;;;5055280;28;20217;-83
2022/11/18 08:31:21;;;;;;;0.70;0.70;;;1.40;99.90;;;;;;5044969;28;20204;-80
2022/11/18 08:33:47;;;;;;;0.50;0.50;;;1.50;99.90;;;;;;5060255;28;20230;-81
2022/11/18 08:36:22;;;;;;;0.50;0.50;;;1.50;99.90;;;;;;5060231;28;20247;-80
2022/11/18 08:38:50;;;;;;;0.70;0.70;;;1.50;99.90;;;;;;5059982;28;20683;-82
2022/11/18 08:41:34;;;;;;;0.50;0.50;;;1.60;99.90;;;;;;5061036;28;20213;-81
2022/11/18 08:44:01;;;;;;;0.70;0.70;;;1.60;99.90;;;;;;5061020;28;20265;-80
2022/11/18 08:46:33;;;;;;;0.80;0.80;;;1.60;99.90;;;;;;5057461;28;20193;-79
2022/11/18 08:48:58;;;;;;;0.70;0.70;;;1.70;99.90;;;;;;5040264;28;20194;-82
2022/11/18 08:51:33;;;;;;;0.60;0.60;;;1.70;99.90;;;;;;5039569;28;20204;-80
2022/11/18 08:54:05;;;;;;;0.52;0.52;;;1.70;99.90;;;;;;5038945;28;20691;-81
2022/11/18 08:56:30;;;;;;;0.60;0.60;;;1.70;99.90;;;;;;5039326;28;20205;-81
2022/11/18 08:58:56;;;;;;;0.60;0.60;;;1.80;99.90;;;;;;5040127;28;20202;-82
2022/11/18 09:01:22;;;;;;;0.60;0.60;;;1.80;99.90;;;;;;5040475;28;20209;-82
2022/11/18 09:03:49;;;;;;;0.52;0.52;;;1.80;99.90;;;;;;5045161;28;20189;-82
2022/11/18 09:06:18;;;;;;;0.60;0.60;;;1.80;99.90;;;;;;5039403;28;20198;-81
2022/11/18 09:08:44;;;;;;;0.70;0.70;;;1.80;99.90;;;;;;5037752;28;20296;-82
2022/11/18 09:11:25;;;;;;;0.50;0.50;;;1.90;99.90;;;;;;5039677;28;20212;-80
2022/11/18 09:13:56;;;;;;;0.60;0.60;;;1.90;99.90;;;;;;5038943;28;20609;-81
2022/11/18 09:16:29;;;;;;;0.60;0.60;;;1.90;99.90;;;;;;5038711;28;20236;-81
2022/11/18 09:18:59;;;;;;;0.60;0.60;;;1.90;99.90;;;;;;5039186;28;20652;-81
2022/11/18 09:21:32;;;;;;;0.60;0.60;;;1.90;99.90;;;;;;5057977;28;20216;-81
2022/11/18 09:24:03;;;;;;;1.48;0.93;;;2.00;99.90;;;;;;5040400;28;20197;-82
2022/11/18 09:26:29;;;;;;;0.50;0.50;;;2.00;99.90;;;;;;5040789;28;20212;-82
2022/11/18 09:29:01;;;;;;;0.70;0.70;;;2.00;99.90;;;;;;5041538;28;20197;-81
2022/11/18 09:32:05;;;;;;;0.70;0.70;;;2.00;99.90;;;;;;5041155;28;20213;-80
2022/11/18 09:34:36;;;;;;;0.55;0.55;;;2.00;99.90;;;;;;5051200;28;20208;-83
2022/11/18 09:37:05;;;;;;;0.60;0.60;;;2.00;99.90;;;;;;5062102;28;20213;-83
2022/11/18 09:39:35;;;;;;;0.80;0.80;;;2.10;99.90;;;;;;5064280;28;20289;-83
2022/11/18 09:42:17;;;;;;;0.60;0.60;;;2.10;99.90;;;;;;5064498;28;20288;-83
2022/11/18 09:54:28;;;;;;;0.60;0.60;;;2.10;99.90;;;;;;5046119;28;20222;-87
2022/11/18 09:57:01;;;;;;;0.75;0.75;;;2.10;99.90;;;;;;5045209;28;20296;-87
2022/11/18 09:59:31;;;;;;;0.90;0.90;;;2.20;99.90;;;;;;5044181;28;20280;-86
2022/11/18 10:02:23;;;;;;;0.90;0.90;;;2.30;99.90;;;;;;5044208;28;20236;-87
2022/11/18 10:04:54;;;;;;;0.70;0.70;;;2.20;99.90;;;;;;5034306;28;20208;-88
2022/11/18 10:08:05;;;;;;;1.25;1.08;;;2.30;99.90;;;;;;5046554;28;20194;-85
2022/11/18 10:10:41;;;;;;;0.82;0.82;;;2.20;99.90;;;;;;5034548;28;20292;-87
2022/11/18 10:13:36;;;;;;;0.65;0.65;;;2.20;99.90;;;;;;5061226;28;20189;-87
2022/11/18 10:16:40;;;;;;;0.80;0.80;;;2.20;99.90;;;;;;5038612;28;20684;-87
2022/11/18 10:19:09;;;;;;;1.58;1.30;;;2.20;99.90;;;;;;5044163;28;20205;-86
2022/11/18 10:22:03;;;;;;;0.75;0.75;;;2.30;99.90;;;;;;5059663;28;20213;-86
2022/11/18 10:24:41;;;;;;;0.70;0.70;;;2.30;99.90;;;;;;5043385;28;20277;-86
2022/11/18 10:27:12;;;;;;;1.23;1.13;;;2.30;99.90;;;;;;5042886;28;20207;-86
2022/11/18 10:29:40;;;;;;;0.60;0.60;;;2.40;99.90;;;;;;5041705;28;20194;-87
2022/11/18 10:32:25;;;;;;;0.60;0.60;;;2.30;99.90;;;;;;5041215;28;20213;-87
2022/11/18 10:34:57;;;;;;;0.63;0.63;;;2.30;99.90;;;;;;5053937;28;20211;-87
2022/11/18 10:37:30;;;;;;;0.60;0.60;;;2.40;99.90;;;;;;5057761;28;20700;-87
2022/11/18 10:39:59;;;;;;;0.88;0.88;;;2.50;99.90;;;;;;5061099;28;20189;-85
2022/11/18 10:42:33;;;;;;;0.70;0.70;;;2.40;99.90;;;;;;5040985;28;20697;-86
2022/11/18 10:45:21;;;;;;;0.68;0.68;;;2.40;99.90;;;;;;5041870;28;20219;-87
2022/11/18 10:48:15;;;;;;;0.50;0.50;;;2.50;99.90;;;;;;5042284;28;20204;-85
2022/11/18 10:50:43;;;;;;;0.70;0.70;;;2.50;99.90;;;;;;5060718;28;20629;-86
2022/11/18 10:53:30;;;;;;;0.70;0.70;;;2.60;99.90;;;;;;5063409;28;20679;-89
2022/11/18 10:56:04;;;;;;;0.65;0.65;;;2.50;99.90;;;;;;5061936;28;20665;-85
2022/11/18 10:58:34;;;;;;;1.52;1.10;;;2.60;99.90;;;;;;5064374;28;20200;-87
2022/11/18 11:01:18;;;;;;;0.50;0.50;;;2.60;99.90;;;;;;5064319;28;20576;-87
2022/11/18 11:04:00;;;;;;;0.70;0.70;;;2.60;99.90;;;;;;5062726;28;20225;-88
2022/11/18 11:06:25;;;;;;;0.70;0.70;;;2.70;99.90;;;;;;5062711;28;20193;-88
2022/11/18 11:08:52;;;;;;;0.60;0.60;;;2.70;99.90;;;;;;5062216;28;20198;-86
2022/11/18 11:11:25;;;;;;;0.90;0.90;;;2.60;99.90;;;;;;5060649;28;20200;-87
2022/11/18 11:14:03;;;;;;;0.60;0.60;;;2.60;99.90;;;;;;5060998;28;20256;-86
2022/11/18 11:16:37;;;;;;;0.50;0.50;;;2.70;99.90;;;;;;5061048;28;20188;-87
2022/11/18 11:19:16;;;;;;;0.60;0.60;;;2.70;99.90;;;;;;5060647;28;20197;-86
2022/11/18 11:21:42;;;;;;;0.60;0.60;;;2.70;99.90;;;;;;5059415;28;20237;-84
2022/11/18 11:24:15;;;;;;;0.77;0.77;;;2.70;99.90;;;;;;5060327;28;20620;-85
2022/11/18 11:26:57;;;;;;;0.65;0.65;;;2.70;99.90;;;;;;5060522;28;20223;-85
2022/11/18 11:29:41;;;;;;;0.50;0.50;;;2.70;99.90;;;;;;5059322;28;20190;-85
2022/11/18 11:32:37;;;;;;;0.60;0.60;;;2.70;99.90;;;;;;5055652;28;20253;-86
2022/11/18 11:35:18;;;;;;;0.63;0.63;;;2.70;99.90;;;;;;5036538;28;20205;-87
2022/11/18 11:37:50;;;;;;;0.70;0.70;;;2.70;99.90;;;;;;5048709;28;20207;-85
2022/11/18 11:40:56;;;;;;;0.60;0.60;;;2.70;99.90;;;;;;5087934;28;20663;-87
2022/11/18 11:44:06;;;;;;;0.70;0.70;;;2.80;99.90;;;;;;5085278;28;20243;-86
2022/11/18 11:50:23;;;;;;;0.70;0.70;;;2.80;99.90;;;;;;4992795;28;20638;-85
2022/11/18 11:53:18;;;;;;;0.60;0.60;;;2.80;99.90;;;;;;4981344;28;20250;-82
2022/11/18 11:55:49;;;;;;;0.70;0.70;;;2.80;99.90;;;;;;4984332;28;20295;-89
2022/11/18 11:58:38;;;;;;;0.60;0.60;;;2.90;99.90;;;;;;4986906;28;20219;-89
2022/11/18 12:04:17;;;;;;;0.63;0.63;;;2.90;99.90;;;;;;4999770;28;20203;-87
2022/11/18 12:07:01;;;;;;;0.60;0.60;;;2.90;99.90;;;;;;4988481;28;20225;-85
2022/11/18 12:10:03;;;;;;;0.77;0.77;;;2.90;99.90;;;;;;4991349;28;20207;-81
2022/11/18 12:12:50;;;;;;;0.63;0.63;;;2.90;99.90;;;;;;4994657;28;20232;-84
2022/11/18 12:15:42;;;;;;;0.60;0.60;;;2.80;99.90;;;;;;5033119;28;20199;-84
2022/11/18 12:18:42;;;;;;;0.60;0.60;;;2.70;99.90;;;;;;5065435;28;20205;-80
2022/11/18 12:21:45;;;;;;;1.48;0.95;;;2.60;99.90;;;;;;5074971;28;20216;-80
2022/11/18 12:24:31;;;;;;;0.70;0.70;;;2.60;99.90;;;;;;5075208;28;20200;-80
2022/11/18 12:27:08;;;;;;;0.50;0.50;;;2.60;99.90;;;;;;5064114;28;20217;-80
2022/11/18 12:32:46;;;;;;;1.08;1.00;;;2.70;99.90;;;;;;5056993;28;20757;-80
2022/11/18 12:35:22;;;;;;;0.57;0.57;;;2.70;99.90;;;;;;5071505;28;20192;-80
2022/11/18 12:38:03;;;;;;;0.70;0.70;;;2.70;99.90;;;;;;5069142;28;20194;-82
2022/11/18 12:40:48;;;;;;;0.68;0.68;;;2.70;99.90;;;;;;5052358;28;20213;-80
2022/11/18 12:43:47;;;;;;;0.50;0.50;;;2.60;99.90;;;;;;5053086;28;20220;-80
2022/11/18 12:46:38;;;;;;;0.60;0.60;;;2.70;99.90;;;;;;5050797;28;20213;-80
2022/11/18 12:49:29;;;;;;;0.50;0.50;;;2.70;99.90;;;;;;5042276;28;20250;-79
2022/11/18 12:51:58;;;;;;;0.50;0.50;;;2.70;99.90;;;;;;5052637;28;20231;-80
2022/11/18 12:54:51;;;;;;;0.50;0.50;;;2.70;99.90;;;;;;5064917;28;20186;-87
2022/11/18 12:57:23;;;;;;;0.60;0.60;;;2.60;99.90;;;;;;5050443;28;20288;-88
2022/11/18 12:59:51;;;;;;;0.60;0.60;;;2.60;99.90;;;;;;5048222;28;20202;-80
2022/11/18 13:06:59;;;;;;;0.70;0.70;;;2.60;99.90;;;;;;5023668;28;20209;-90
2022/11/18 13:13:27;;;;;;;0.60;0.60;;;2.50;99.90;;;;;;4918102;29;20218;-84
2022/11/18 13:19:08;;;;;;;0.80;0.80;;;2.40;99.90;;;;;;4910707;29;20210;-87
2022/11/18 13:32:20;;;;;;;0.60;0.60;;;2.40;99.90;;;;;;4932873;29;20209;-87
2022/11/18 13:35:13;;;;;;;0.57;0.57;;;2.30;99.90;;;;;;4902911;29;20640;-83
2022/11/18 13:38:00;;;;;;;0.85;0.85;;;2.30;99.90;;;;;;4926474;29;20212;-88
2022/11/18 13:43:36;;;;;;;0.80;0.80;;;2.30;99.90;;;;;;4947832;29;20212;-90
2022/11/18 13:49:31;;;;;;;0.65;0.65;;;2.40;99.90;;;;;;4989610;28;20204;-87
2022/11/18 13:51:57;;;;;;;0.70;0.70;;;2.30;99.90;;;;;;5041521;28;20218;-87
2022/11/18 13:54:28;;;;;;;0.60;0.60;;;2.30;99.90;;;;;;5044769;28;20198;-89
2022/11/18 13:56:54;;;;;;;0.60;0.60;;;2.30;99.90;;;;;;5029737;28;20229;-87
2022/11/18 13:59:23;;;;;;;0.60;0.60;;;2.30;99.90;;;;;;5038390;28;20202;-86
2022/11/18 14:01:54;;;;;;;0.50;0.50;;;2.30;99.90;;;;;;5021121;28;20681;-87
2022/11/18 14:04:27;;;;;;;0.60;0.60;;;2.40;99.90;;;;;;5020512;28;20222;-85
2022/11/18 14:06:53;;;;;;;0.60;0.60;;;2.30;99.90;;;;;;5019526;28;20722;-87
2022/11/18 14:09:47;;;;;;;0.60;0.60;;;2.30;99.90;;;;;;5060312;28;20255;-85
2022/11/18 14:12:15;;;;;;;0.60;0.60;;;2.30;99.90;;;;;;5045773;28;20700;-88
2022/11/18 14:14:42;;;;;;;0.60;0.60;;;2.30;99.90;;;;;;5061345;28;20660;-87
2022/11/18 14:17:16;;;;;;;0.80;0.80;;;2.20;99.90;;;;;;5061656;28;20203;-86
2022/11/18 14:19:43;;;;;;;0.60;0.60;;;2.30;99.90;;;;;;5049398;28;20196;-86
2022/11/18 14:22:19;;;;;;;0.50;0.50;;;2.20;99.90;;;;;;5040260;28;20749;-87
2022/11/18 14:25:14;;;;;;;0.70;0.70;;;2.20;99.90;;;;;;5041480;28;20269;-87
2022/11/18 14:27:49;;;;;;;1.00;1.00;;;2.20;99.90;;;;;;5061625;28;20201;-87
2022/11/18 14:30:29;;;;;;;0.70;0.70;;;2.10;99.90;;;;;;5084004;28;20192;-86